sensor_id;sensor_type;location;lat;lon;timestamp;temperature;humidity
66594;DHT22;53450;42.584;23.366;2023-11-19T00:02:12;1.11;75.41
66594;DHT22;53450;42.584;23.366;2023-11-19T00:04:38;1.18;75.16
66594;DHT22;53450;42.584;23.366;2023-11-19T00:07:06;1.21;75.04
66594;DHT22;53450;42.584;23.366;2023-11-19T00:09:35;1.17;75.05
66594;DHT22;53450;42.584;23.366;2023-11-19T00:12:06;1.16;74.89
66594;DHT22;53450;42.584;23.366;2023-11-19T00:14:33;1.18;75.28
66594;DHT22;53450;42.584;23.366;2023-11-19T00:16:58;1.18;75.09
66594;DHT22;53450;42.584;23.366;2023-11-19T00:19:24;1.24;75.02
66594;DHT22;53450;42.584;23.366;2023-11-19T00:21:49;1.31;74.56
66594;DHT22;53450;42.584;23.366;2023-11-19T00:24:15;1.26;74.80
66594;DHT22;53450;42.584;23.366;2023-11-19T00:26:42;1.24;74.31
66594;DHT22;53450;42.584;23.366;2023-11-19T00:29:08;1.24;74.39
66594;DHT22;53450;42.584;23.366;2023-11-19T00:31:34;1.27;74.46
66594;DHT22;53450;42.584;23.366;2023-11-19T00:33:59;1.24;74.56
66594;DHT22;53450;42.584;23.366;2023-11-19T00:36:25;1.21;74.33
66594;DHT22;53450;42.584;23.366;2023-11-19T00:38:51;1.21;74.57
66594;DHT22;53450;42.584;23.366;2023-11-19T00:41:18;1.20;74.31
66594;DHT22;53450;42.584;23.366;2023-11-19T00:43:44;1.23;74.86
66594;DHT22;53450;42.584;23.366;2023-11-19T00:46:10;1.24;74.64
66594;DHT22;53450;42.584;23.366;2023-11-19T00:48:41;1.23;74.62
66594;DHT22;53450;42.584;23.366;2023-11-19T00:51:07;1.17;74.36
66594;DHT22;53450;42.584;23.366;2023-11-19T00:53:33;1.21;74.44
66594;DHT22;53450;42.584;23.366;2023-11-19T00:56:02;1.23;74.77
66594;DHT22;53450;42.584;23.366;2023-11-19T00:58:27;1.21;74.72
66594;DHT22;53450;42.584;23.366;2023-11-19T01:00:53;1.21;74.65
66594;DHT22;53450;42.584;23.366;2023-11-19T01:03:18;1.21;74.58
66594;DHT22;53450;42.584;23.366;2023-11-19T01:05:44;1.26;74.92
66594;DHT22;53450;42.584;23.366;2023-11-19T01:08:12;1.16;74.66
66594;DHT22;53450;42.584;23.366;2023-11-19T01:10:37;1.18;74.93
66594;DHT22;53450;42.584;23.366;2023-11-19T01:13:03;1.26;74.74
66594;DHT22;53450;42.584;23.366;2023-11-19T01:15:33;1.26;74.38
66594;DHT22;53450;42.584;23.366;2023-11-19T01:17:59;1.28;74.44
66594;DHT22;53450;42.584;23.366;2023-11-19T01:20:24;1.30;74.31
66594;DHT22;53450;42.584;23.366;2023-11-19T01:22:51;1.27;74.58
66594;DHT22;53450;42.584;23.366;2023-11-19T01:25:17;1.27;74.32
66594;DHT22;53450;42.584;23.366;2023-11-19T01:27:45;1.28;74.47
66594;DHT22;53450;42.584;23.366;2023-11-19T01:30:11;1.37;74.27
66594;DHT22;53450;42.584;23.366;2023-11-19T01:32:40;1.32;74.12
66594;DHT22;53450;42.584;23.366;2023-11-19T01:35:06;1.38;73.83
66594;DHT22;53450;42.584;23.366;2023-11-19T01:37:33;1.35;73.92
66594;DHT22;53450;42.584;23.366;2023-11-19T01:40:00;1.27;73.99
66594;DHT22;53450;42.584;23.366;2023-11-19T01:42:25;1.27;74.04
66594;DHT22;53450;42.584;23.366;2023-11-19T01:44:57;1.26;73.74
66594;DHT22;53450;42.584;23.366;2023-11-19T01:47:23;1.21;74.01
66594;DHT22;53450;42.584;23.366;2023-11-19T01:49:50;1.18;74.05
66594;DHT22;53450;42.584;23.366;2023-11-19T01:52:17;1.13;74.08
66594;DHT22;53450;42.584;23.366;2023-11-19T01:54:43;1.16;74.48
66594;DHT22;53450;42.584;23.366;2023-11-19T01:57:12;1.14;74.37
66594;DHT22;53450;42.584;23.366;2023-11-19T01:59:38;1.16;74.32
66594;DHT22;53450;42.584;23.366;2023-11-19T02:02:05;1.08;74.45
66594;DHT22;53450;42.584;23.366;2023-11-19T02:04:31;1.05;74.24
66594;DHT22;53450;42.584;23.366;2023-11-19T02:06:58;1.07;74.17
66594;DHT22;53450;42.584;23.366;2023-11-19T02:09:23;1.03;74.05
66594;DHT22;53450;42.584;23.366;2023-11-19T02:11:49;1.04;73.82
66594;DHT22;53450;42.584;23.366;2023-11-19T02:14:17;0.97;73.85
66594;DHT22;53450;42.584;23.366;2023-11-19T02:16:43;1.00;73.59
66594;DHT22;53450;42.584;23.366;2023-11-19T02:19:09;1.01;73.54
66594;DHT22;53450;42.584;23.366;2023-11-19T02:21:37;0.94;73.50
66594;DHT22;53450;42.584;23.366;2023-11-19T02:24:08;0.90;73.40
66594;DHT22;53450;42.584;23.366;2023-11-19T02:27:30;1.01;73.42
66594;DHT22;53450;42.584;23.366;2023-11-19T02:29:46;0.87;73.29
66594;DHT22;53450;42.584;23.366;2023-11-19T02:32:12;0.91;73.23
66594;DHT22;53450;42.584;23.366;2023-11-19T02:34:39;0.91;73.87
66594;DHT22;53450;42.584;23.366;2023-11-19T02:37:05;0.91;73.79
66594;DHT22;53450;42.584;23.366;2023-11-19T02:39:30;0.93;73.74
66594;DHT22;53450;42.584;23.366;2023-11-19T02:41:56;0.89;73.69
66594;DHT22;53450;42.584;23.366;2023-11-19T02:44:22;0.89;73.44
66594;DHT22;53450;42.584;23.366;2023-11-19T02:46:48;0.84;73.39
66594;DHT22;53450;42.584;23.366;2023-11-19T02:49:14;0.83;73.60
66594;DHT22;53450;42.584;23.366;2023-11-19T02:51:40;0.84;73.71
66594;DHT22;53450;42.584;23.366;2023-11-19T02:54:06;0.79;74.25
66594;DHT22;53450;42.584;23.366;2023-11-19T02:56:32;0.76;74.05
66594;DHT22;53450;42.584;23.366;2023-11-19T02:59:02;0.75;73.88
66594;DHT22;53450;42.584;23.366;2023-11-19T03:01:40;0.67;74.16
66594;DHT22;53450;42.584;23.366;2023-11-19T03:04:09;0.67;74.15
66594;DHT22;53450;42.584;23.366;2023-11-19T03:06:37;0.73;73.42
66594;DHT22;53450;42.584;23.366;2023-11-19T03:09:03;0.72;73.76
66594;DHT22;53450;42.584;23.366;2023-11-19T03:11:33;0.62;73.93
66594;DHT22;53450;42.584;23.366;2023-11-19T03:13:59;0.58;74.14
66594;DHT22;53450;42.584;23.366;2023-11-19T03:16:24;0.62;73.98
66594;DHT22;53450;42.584;23.366;2023-11-19T03:18:50;0.72;73.57
66594;DHT22;53450;42.584;23.366;2023-11-19T03:21:15;0.66;74.18
66594;DHT22;53450;42.584;23.366;2023-11-19T03:23:41;0.69;73.80
66594;DHT22;53450;42.584;23.366;2023-11-19T03:26:07;0.65;73.88
66594;DHT22;53450;42.584;23.366;2023-11-19T03:28:33;0.76;74.02
66594;DHT22;53450;42.584;23.366;2023-11-19T03:30:59;0.70;74.15
66594;DHT22;53450;42.584;23.366;2023-11-19T03:33:24;0.60;74.10
66594;DHT22;53450;42.584;23.366;2023-11-19T03:35:51;0.69;74.22
66594;DHT22;53450;42.584;23.366;2023-11-19T03:38:17;0.75;73.83
66594;DHT22;53450;42.584;23.366;2023-11-19T03:40:42;0.69;74.09
66594;DHT22;53450;42.584;23.366;2023-11-19T03:43:08;0.67;73.73
66594;DHT22;53450;42.584;23.366;2023-11-19T03:45:34;0.69;73.93
66594;DHT22;53450;42.584;23.366;2023-11-19T03:48:01;0.76;74.38
66594;DHT22;53450;42.584;23.366;2023-11-19T03:50:27;0.67;74.33
66594;DHT22;53450;42.584;23.366;2023-11-19T03:53:33;0.62;74.73
66594;DHT22;53450;42.584;23.366;2023-11-19T03:55:59;0.60;74.77
66594;DHT22;53450;42.584;23.366;2023-11-19T03:58:25;0.60;74.56
66594;DHT22;53450;42.584;23.366;2023-11-19T04:00:50;0.65;74.71
66594;DHT22;53450;42.584;23.366;2023-11-19T04:03:16;0.65;74.83
66594;DHT22;53450;42.584;23.366;2023-11-19T04:05:41;0.63;74.91
66594;DHT22;53450;42.584;23.366;2023-11-19T04:08:07;0.69;75.10
66594;DHT22;53450;42.584;23.366;2023-11-19T04:10:32;0.67;74.52
66594;DHT22;53450;42.584;23.366;2023-11-19T04:12:58;0.70;74.96
66594;DHT22;53450;42.584;23.366;2023-11-19T04:15:24;0.73;74.67
66594;DHT22;53450;42.584;23.366;2023-11-19T04:17:49;0.70;74.45
66594;DHT22;53450;42.584;23.366;2023-11-19T04:20:15;0.69;74.78
66594;DHT22;53450;42.584;23.366;2023-11-19T04:22:40;0.67;74.94
66594;DHT22;53450;42.584;23.366;2023-11-19T04:25:06;0.63;74.80
66594;DHT22;53450;42.584;23.366;2023-11-19T04:27:32;0.66;75.08
66594;DHT22;53450;42.584;23.366;2023-11-19T04:29:58;0.77;75.40
66594;DHT22;53450;42.584;23.366;2023-11-19T04:32:23;0.66;74.52
66594;DHT22;53450;42.584;23.366;2023-11-19T04:34:50;0.73;74.80
66594;DHT22;53450;42.584;23.366;2023-11-19T04:37:16;0.86;74.61
66594;DHT22;53450;42.584;23.366;2023-11-19T04:39:44;0.86;73.96
66594;DHT22;53450;42.584;23.366;2023-11-19T04:42:09;0.70;74.43
66594;DHT22;53450;42.584;23.366;2023-11-19T04:44:35;0.75;74.89
66594;DHT22;53450;42.584;23.366;2023-11-19T04:47:00;0.70;74.83
66594;DHT22;53450;42.584;23.366;2023-11-19T04:49:26;0.72;74.32
66594;DHT22;53450;42.584;23.366;2023-11-19T04:51:52;0.59;74.38
66594;DHT22;53450;42.584;23.366;2023-11-19T04:54:19;0.69;74.26
66594;DHT22;53450;42.584;23.366;2023-11-19T04:56:47;0.58;74.66
66594;DHT22;53450;42.584;23.366;2023-11-19T04:59:14;0.70;74.22
66594;DHT22;53450;42.584;23.366;2023-11-19T05:01:39;0.73;74.14
66594;DHT22;53450;42.584;23.366;2023-11-19T05:04:07;0.73;73.96
66594;DHT22;53450;42.584;23.366;2023-11-19T05:06:33;0.81;73.53
66594;DHT22;53450;42.584;23.366;2023-11-19T05:08:59;0.79;73.70
66594;DHT22;53450;42.584;23.366;2023-11-19T05:11:33;0.69;73.89
66594;DHT22;53450;42.584;23.366;2023-11-19T05:14:00;0.58;74.34
66594;DHT22;53450;42.584;23.366;2023-11-19T05:16:25;0.53;74.20
66594;DHT22;53450;42.584;23.366;2023-11-19T05:18:51;0.58;74.17
66594;DHT22;53450;42.584;23.366;2023-11-19T05:21:17;0.53;74.58
66594;DHT22;53450;42.584;23.366;2023-11-19T05:23:43;0.59;74.43
66594;DHT22;53450;42.584;23.366;2023-11-19T05:26:09;0.63;74.02
66594;DHT22;53450;42.584;23.366;2023-11-19T05:28:38;0.70;73.82
66594;DHT22;53450;42.584;23.366;2023-11-19T05:31:04;0.72;73.05
66594;DHT22;53450;42.584;23.366;2023-11-19T05:33:31;0.76;73.46
66594;DHT22;53450;42.584;23.366;2023-11-19T05:35:57;0.80;73.05
66594;DHT22;53450;42.584;23.366;2023-11-19T05:38:22;0.75;73.17
66594;DHT22;53450;42.584;23.366;2023-11-19T05:40:48;0.70;73.63
66594;DHT22;53450;42.584;23.366;2023-11-19T05:43:14;0.73;73.32
66594;DHT22;53450;42.584;23.366;2023-11-19T05:45:42;0.69;73.59
66594;DHT22;53450;42.584;23.366;2023-11-19T05:48:08;0.72;73.28
66594;DHT22;53450;42.584;23.366;2023-11-19T05:50:35;0.62;73.68
66594;DHT22;53450;42.584;23.366;2023-11-19T05:53:01;0.58;74.15
66594;DHT22;53450;42.584;23.366;2023-11-19T05:55:29;0.58;74.57
66594;DHT22;53450;42.584;23.366;2023-11-19T05:57:55;0.56;74.60
66594;DHT22;53450;42.584;23.366;2023-11-19T06:00:21;0.52;74.23
66594;DHT22;53450;42.584;23.366;2023-11-19T06:02:46;0.52;74.46
66594;DHT22;53450;42.584;23.366;2023-11-19T06:05:12;0.48;74.64
66594;DHT22;53450;42.584;23.366;2023-11-19T06:07:37;0.42;74.71
66594;DHT22;53450;42.584;23.366;2023-11-19T06:10:05;0.41;75.01
66594;DHT22;53450;42.584;23.366;2023-11-19T06:12:33;0.41;75.32
66594;DHT22;53450;42.584;23.366;2023-11-19T06:15:07;0.45;75.52
66594;DHT22;53450;42.584;23.366;2023-11-19T06:17:34;0.46;75.27
66594;DHT22;53450;42.584;23.366;2023-11-19T06:19:59;0.62;74.05
66594;DHT22;53450;42.584;23.366;2023-11-19T06:22:25;0.69;73.93
66594;DHT22;53450;42.584;23.366;2023-11-19T06:24:51;0.72;73.35
66594;DHT22;53450;42.584;23.366;2023-11-19T06:27:16;0.65;73.79
66594;DHT22;53450;42.584;23.366;2023-11-19T06:29:42;0.65;74.26
66594;DHT22;53450;42.584;23.366;2023-11-19T06:32:07;0.65;74.71
66594;DHT22;53450;42.584;23.366;2023-11-19T06:34:34;0.59;74.57
66594;DHT22;53450;42.584;23.366;2023-11-19T06:36:59;0.60;74.73
66594;DHT22;53450;42.584;23.366;2023-11-19T06:39:25;0.60;74.76
66594;DHT22;53450;42.584;23.366;2023-11-19T06:41:51;0.53;75.21
66594;DHT22;53450;42.584;23.366;2023-11-19T06:44:17;0.56;75.05
66594;DHT22;53450;42.584;23.366;2023-11-19T06:46:43;0.56;75.25
66594;DHT22;53450;42.584;23.366;2023-11-19T06:49:08;0.67;75.14
66594;DHT22;53450;42.584;23.366;2023-11-19T06:51:34;0.67;74.24
66594;DHT22;53450;42.584;23.366;2023-11-19T06:54:00;0.73;74.14
66594;DHT22;53450;42.584;23.366;2023-11-19T06:56:26;0.73;73.78
66594;DHT22;53450;42.584;23.366;2023-11-19T06:58:52;0.69;73.85
66594;DHT22;53450;42.584;23.366;2023-11-19T07:01:18;0.67;73.92
66594;DHT22;53450;42.584;23.366;2023-11-19T07:03:45;0.62;73.46
66594;DHT22;53450;42.584;23.366;2023-11-19T07:06:12;0.73;73.77
66594;DHT22;53450;42.584;23.366;2023-11-19T07:08:38;0.73;73.30
66594;DHT22;53450;42.584;23.366;2023-11-19T07:11:04;0.69;73.61
66594;DHT22;53450;42.584;23.366;2023-11-19T07:13:30;0.76;73.92
66594;DHT22;53450;42.584;23.366;2023-11-19T07:15:56;0.93;73.38
66594;DHT22;53450;42.584;23.366;2023-11-19T07:18:21;1.11;72.64
66594;DHT22;53450;42.584;23.366;2023-11-19T07:20:48;1.31;71.98
66594;DHT22;53450;42.584;23.366;2023-11-19T07:23:13;1.31;72.10
66594;DHT22;53450;42.584;23.366;2023-11-19T07:25:44;1.30;71.63
66594;DHT22;53450;42.584;23.366;2023-11-19T07:28:15;1.14;71.84
66594;DHT22;53450;42.584;23.366;2023-11-19T07:30:40;1.10;72.30
66594;DHT22;53450;42.584;23.366;2023-11-19T07:33:06;0.98;72.52
66594;DHT22;53450;42.584;23.366;2023-11-19T07:35:33;0.91;72.03
66594;DHT22;53450;42.584;23.366;2023-11-19T07:37:59;0.93;73.08
66594;DHT22;53450;42.584;23.366;2023-11-19T07:40:25;1.01;72.55
66594;DHT22;53450;42.584;23.366;2023-11-19T07:42:50;1.10;72.55
66594;DHT22;53450;42.584;23.366;2023-11-19T07:45:17;1.14;72.38
66594;DHT22;53450;42.584;23.366;2023-11-19T07:47:43;1.18;71.88
66594;DHT22;53450;42.584;23.366;2023-11-19T07:50:11;1.26;71.39
66594;DHT22;53450;42.584;23.366;2023-11-19T07:52:39;1.16;70.93
66594;DHT22;53450;42.584;23.366;2023-11-19T07:55:05;1.31;71.19
66594;DHT22;53450;42.584;23.366;2023-11-19T07:57:31;1.49;70.69
66594;DHT22;53450;42.584;23.366;2023-11-19T08:00:00;1.55;70.65
66594;DHT22;53450;42.584;23.366;2023-11-19T08:02:26;1.60;69.94
66594;DHT22;53450;42.584;23.366;2023-11-19T08:04:52;1.48;70.31
66594;DHT22;53450;42.584;23.366;2023-11-19T08:07:20;1.48;70.77
66594;DHT22;53450;42.584;23.366;2023-11-19T08:09:46;1.49;70.14
66594;DHT22;53450;42.584;23.366;2023-11-19T08:12:12;1.60;70.23
66594;DHT22;53450;42.584;23.366;2023-11-19T08:14:40;1.73;69.66
66594;DHT22;53450;42.584;23.366;2023-11-19T08:17:05;1.77;68.95
66594;DHT22;53450;42.584;23.366;2023-11-19T08:19:31;1.75;69.07
66594;DHT22;53450;42.584;23.366;2023-11-19T08:21:57;1.70;69.02
66594;DHT22;53450;42.584;23.366;2023-11-19T08:24:23;1.59;69.53
66594;DHT22;53450;42.584;23.366;2023-11-19T08:26:49;1.56;69.71
66594;DHT22;53450;42.584;23.366;2023-11-19T08:29:14;1.60;69.43
66594;DHT22;53450;42.584;23.366;2023-11-19T08:31:40;1.49;69.53
66594;DHT22;53450;42.584;23.366;2023-11-19T08:34:06;1.41;70.04
66594;DHT22;53450;42.584;23.366;2023-11-19T08:36:34;1.35;70.73
66594;DHT22;53450;42.584;23.366;2023-11-19T08:39:00;1.31;70.73
66594;DHT22;53450;42.584;23.366;2023-11-19T08:41:25;1.26;70.42
66594;DHT22;53450;42.584;23.366;2023-11-19T08:43:52;1.27;70.69
66594;DHT22;53450;42.584;23.366;2023-11-19T08:46:18;1.44;70.67
66594;DHT22;53450;42.584;23.366;2023-11-19T08:48:43;1.39;70.45
66594;DHT22;53450;42.584;23.366;2023-11-19T08:51:09;1.56;70.56
66594;DHT22;53450;42.584;23.366;2023-11-19T08:53:34;1.51;70.17
66594;DHT22;53450;42.584;23.366;2023-11-19T08:56:00;1.52;70.35
66594;DHT22;53450;42.584;23.366;2023-11-19T08:58:28;1.72;70.32
66594;DHT22;53450;42.584;23.366;2023-11-19T09:00:54;1.63;70.13
66594;DHT22;53450;42.584;23.366;2023-11-19T09:03:19;1.65;69.84
66594;DHT22;53450;42.584;23.366;2023-11-19T09:05:45;1.63;70.35
66594;DHT22;53450;42.584;23.366;2023-11-19T09:08:11;1.58;70.23
66594;DHT22;53450;42.584;23.366;2023-11-19T09:10:37;1.62;70.55
66594;DHT22;53450;42.584;23.366;2023-11-19T09:13:03;1.69;70.44
66594;DHT22;53450;42.584;23.366;2023-11-19T09:15:29;1.83;70.10
66594;DHT22;53450;42.584;23.366;2023-11-19T09:17:55;1.93;69.76
66594;DHT22;53450;42.584;23.366;2023-11-19T09:20:21;2.02;69.87
66594;DHT22;53450;42.584;23.366;2023-11-19T09:22:47;1.85;70.06
66594;DHT22;53450;42.584;23.366;2023-11-19T09:25:12;1.92;69.70
66594;DHT22;53450;42.584;23.366;2023-11-19T09:27:45;2.05;69.49
66594;DHT22;53450;42.584;23.366;2023-11-19T09:30:28;2.09;69.02
66594;DHT22;53450;42.584;23.366;2023-11-19T09:32:53;2.06;68.84
66594;DHT22;53450;42.584;23.366;2023-11-19T09:35:19;2.10;68.83
66594;DHT22;53450;42.584;23.366;2023-11-19T09:37:45;2.34;68.34
66594;DHT22;53450;42.584;23.366;2023-11-19T09:40:10;2.27;68.35
66594;DHT22;53450;42.584;23.366;2023-11-19T09:42:43;2.26;67.86
66594;DHT22;53450;42.584;23.366;2023-11-19T09:45:15;2.33;68.09
66594;DHT22;53450;42.584;23.366;2023-11-19T09:47:45;2.38;67.43
66594;DHT22;53450;42.584;23.366;2023-11-19T09:50:17;2.55;67.54
66594;DHT22;53450;42.584;23.366;2023-11-19T09:52:47;2.64;67.01
66594;DHT22;53450;42.584;23.366;2023-11-19T09:55:13;2.75;66.88
66594;DHT22;53450;42.584;23.366;2023-11-19T09:57:39;2.74;66.50
66594;DHT22;53450;42.584;23.366;2023-11-19T10:00:10;2.85;66.02
66594;DHT22;53450;42.584;23.366;2023-11-19T10:02:36;2.88;65.39
66594;DHT22;53450;42.584;23.366;2023-11-19T10:05:12;3.00;66.74
66594;DHT22;53450;42.584;23.366;2023-11-19T10:07:38;3.17;65.93
66594;DHT22;53450;42.584;23.366;2023-11-19T10:10:04;3.09;65.71
66594;DHT22;53450;42.584;23.366;2023-11-19T10:12:30;3.22;66.09
66594;DHT22;53450;42.584;23.366;2023-11-19T10:14:59;3.31;65.66
66594;DHT22;53450;42.584;23.366;2023-11-19T10:17:29;2.89;66.26
66594;DHT22;53450;42.584;23.366;2023-11-19T10:19:57;2.55;67.91
66594;DHT22;53450;42.584;23.366;2023-11-19T10:22:23;2.51;68.12
66594;DHT22;53450;42.584;23.366;2023-11-19T10:24:50;2.61;67.55
66594;DHT22;53450;42.584;23.366;2023-11-19T10:27:15;2.62;67.83
66594;DHT22;53450;42.584;23.366;2023-11-19T10:29:45;2.55;68.00
66594;DHT22;53450;42.584;23.366;2023-11-19T10:32:12;2.48;67.21
66594;DHT22;53450;42.584;23.366;2023-11-19T10:34:37;2.59;67.21
66594;DHT22;53450;42.584;23.366;2023-11-19T10:37:05;2.79;66.92
66594;DHT22;53450;42.584;23.366;2023-11-19T10:39:53;2.85;65.32
66594;DHT22;53450;42.584;23.366;2023-11-19T10:42:22;2.97;65.99
66594;DHT22;53450;42.584;23.366;2023-11-19T10:44:50;3.27;64.34
66594;DHT22;53450;42.584;23.366;2023-11-19T10:47:18;3.41;64.14
66594;DHT22;53450;42.584;23.366;2023-11-19T10:49:45;3.36;63.72
66594;DHT22;53450;42.584;23.366;2023-11-19T10:52:17;3.65;63.22
66594;DHT22;53450;42.584;23.366;2023-11-19T10:54:50;3.58;62.62
66594;DHT22;53450;42.584;23.366;2023-11-19T10:57:21;3.45;62.87
66594;DHT22;53450;42.584;23.366;2023-11-19T10:59:55;3.37;62.63
66594;DHT22;53450;42.584;23.366;2023-11-19T11:02:25;3.40;62.57
66594;DHT22;53450;42.584;23.366;2023-11-19T11:04:53;3.10;63.57
66594;DHT22;53450;42.584;23.366;2023-11-19T11:07:21;3.22;63.81
66594;DHT22;53450;42.584;23.366;2023-11-19T11:09:51;3.53;63.21
66594;DHT22;53450;42.584;23.366;2023-11-19T11:12:24;3.61;62.44
66594;DHT22;53450;42.584;23.366;2023-11-19T11:14:50;3.61;62.14
66594;DHT22;53450;42.584;23.366;2023-11-19T11:17:17;3.47;62.11
66594;DHT22;53450;42.584;23.366;2023-11-19T11:19:44;3.63;62.46
66594;DHT22;53450;42.584;23.366;2023-11-19T11:22:10;4.01;62.10
66594;DHT22;53450;42.584;23.366;2023-11-19T11:27:32;3.98;61.36
66594;DHT22;53450;42.584;23.366;2023-11-19T11:30:42;3.98;61.47
66594;DHT22;53450;42.584;23.366;2023-11-19T11:36:19;4.06;61.55
66594;DHT22;53450;42.584;23.366;2023-11-19T11:38:47;3.98;62.66
66594;DHT22;53450;42.584;23.366;2023-11-19T11:43:46;3.89;63.03
66594;DHT22;53450;42.584;23.366;2023-11-19T11:48:58;3.79;63.95
66594;DHT22;53450;42.584;23.366;2023-11-19T11:54:26;3.94;63.05
66594;DHT22;53450;42.584;23.366;2023-11-19T11:57:11;4.01;62.62
66594;DHT22;53450;42.584;23.366;2023-11-19T11:59:47;3.89;62.13
66594;DHT22;53450;42.584;23.366;2023-11-19T12:02:21;3.74;62.53
66594;DHT22;53450;42.584;23.366;2023-11-19T12:04:49;3.92;61.67
66594;DHT22;53450;42.584;23.366;2023-11-19T12:07:20;4.06;62.53
66594;DHT22;53450;42.584;23.366;2023-11-19T12:09:52;4.01;62.00
66594;DHT22;53450;42.584;23.366;2023-11-19T12:20:02;3.84;61.37
66594;DHT22;53450;42.584;23.366;2023-11-19T12:22:28;3.94;60.78
66594;DHT22;53450;42.584;23.366;2023-11-19T12:24:54;3.68;60.68
66594;DHT22;53450;42.584;23.366;2023-11-19T12:27:20;3.61;61.51
66594;DHT22;53450;42.584;23.366;2023-11-19T12:29:49;3.68;61.62
66594;DHT22;53450;42.584;23.366;2023-11-19T12:32:15;3.67;61.72
66594;DHT22;53450;42.584;23.366;2023-11-19T12:34:41;3.82;61.74
66594;DHT22;53450;42.584;23.366;2023-11-19T12:37:07;3.74;61.48
66594;DHT22;53450;42.584;23.366;2023-11-19T12:39:35;3.61;61.95
66594;DHT22;53450;42.584;23.366;2023-11-19T12:43:46;3.75;62.16
66594;DHT22;53450;42.584;23.366;2023-11-19T12:46:22;3.70;62.23
66594;DHT22;53450;42.584;23.366;2023-11-19T12:48:51;3.74;61.38
66594;DHT22;53450;42.584;23.366;2023-11-19T12:51:17;3.73;61.90
66594;DHT22;53450;42.584;23.366;2023-11-19T12:53:52;3.77;61.19
66594;DHT22;53450;42.584;23.366;2023-11-19T12:56:23;3.65;61.45
66594;DHT22;53450;42.584;23.366;2023-11-19T12:58:49;3.60;61.59
66594;DHT22;53450;42.584;23.366;2023-11-19T13:01:21;3.53;62.02
66594;DHT22;53450;42.584;23.366;2023-11-19T13:03:47;3.57;63.21
66594;DHT22;53450;42.584;23.366;2023-11-19T13:06:14;3.54;64.30
66594;DHT22;53450;42.584;23.366;2023-11-19T13:08:46;3.31;64.24
66594;DHT22;53450;42.584;23.366;2023-11-19T13:11:33;3.36;64.87
66594;DHT22;53450;42.584;23.366;2023-11-19T13:13:59;3.54;62.96
66594;DHT22;53450;42.584;23.366;2023-11-19T13:16:26;3.86;64.31
66594;DHT22;53450;42.584;23.366;2023-11-19T13:18:52;3.88;62.94
66594;DHT22;53450;42.584;23.366;2023-11-19T13:21:18;3.73;63.71
66594;DHT22;53450;42.584;23.366;2023-11-19T13:23:44;3.58;64.72
66594;DHT22;53450;42.584;23.366;2023-11-19T13:26:10;3.47;64.66
66594;DHT22;53450;42.584;23.366;2023-11-19T13:28:39;3.55;65.70
66594;DHT22;53450;42.584;23.366;2023-11-19T13:31:05;3.63;65.47
66594;DHT22;53450;42.584;23.366;2023-11-19T13:33:31;3.53;64.96
66594;DHT22;53450;42.584;23.366;2023-11-19T13:35:56;3.53;65.85
66594;DHT22;53450;42.584;23.366;2023-11-19T13:38:22;3.45;65.87
66594;DHT22;53450;42.584;23.366;2023-11-19T13:40:51;3.53;65.44
66594;DHT22;53450;42.584;23.366;2023-11-19T13:43:17;3.58;65.22
66594;DHT22;53450;42.584;23.366;2023-11-19T13:45:42;3.48;65.75
66594;DHT22;53450;42.584;23.366;2023-11-19T13:48:08;3.48;65.45
66594;DHT22;53450;42.584;23.366;2023-11-19T13:50:35;3.36;65.96
66594;DHT22;53450;42.584;23.366;2023-11-19T13:53:00;3.53;65.49
66594;DHT22;53450;42.584;23.366;2023-11-19T13:55:26;3.33;66.83
66594;DHT22;53450;42.584;23.366;2023-11-19T13:57:52;3.12;66.98
66594;DHT22;53450;42.584;23.366;2023-11-19T14:00:17;3.03;67.41
66594;DHT22;53450;42.584;23.366;2023-11-19T14:02:46;3.20;67.45
66594;DHT22;53450;42.584;23.366;2023-11-19T14:05:15;3.31;66.84
66594;DHT22;53450;42.584;23.366;2023-11-19T14:07:45;3.36;66.63
66594;DHT22;53450;42.584;23.366;2023-11-19T14:10:14;3.33;67.00
66594;DHT22;53450;42.584;23.366;2023-11-19T14:12:45;3.17;67.32
66594;DHT22;53450;42.584;23.366;2023-11-19T14:15:11;3.28;67.51
66594;DHT22;53450;42.584;23.366;2023-11-19T14:17:40;3.40;67.26
66594;DHT22;53450;42.584;23.366;2023-11-19T14:20:06;3.41;67.15
66594;DHT22;53450;42.584;23.366;2023-11-19T14:22:42;3.51;67.06
66594;DHT22;53450;42.584;23.366;2023-11-19T14:25:09;3.37;67.38
66594;DHT22;53450;42.584;23.366;2023-11-19T14:27:41;3.16;67.89
66594;DHT22;53450;42.584;23.366;2023-11-19T14:30:12;2.97;67.73
66594;DHT22;53450;42.584;23.366;2023-11-19T14:32:40;3.07;68.06
66594;DHT22;53450;42.584;23.366;2023-11-19T14:35:06;3.06;67.37
66594;DHT22;53450;42.584;23.366;2023-11-19T14:37:32;2.99;68.27
66594;DHT22;53450;42.584;23.366;2023-11-19T14:39:58;3.10;68.13
66594;DHT22;53450;42.584;23.366;2023-11-19T14:42:24;3.02;68.10
66594;DHT22;53450;42.584;23.366;2023-11-19T14:44:53;3.07;69.56
66594;DHT22;53450;42.584;23.366;2023-11-19T14:47:19;3.00;69.58
66594;DHT22;53450;42.584;23.366;2023-11-19T14:49:45;2.89;69.30
66594;DHT22;53450;42.584;23.366;2023-11-19T14:52:11;2.85;69.34
66594;DHT22;53450;42.584;23.366;2023-11-19T14:54:37;2.65;70.33
66594;DHT22;53450;42.584;23.366;2023-11-19T14:57:06;2.58;70.45
66594;DHT22;53450;42.584;23.366;2023-11-19T14:59:38;2.44;70.96
66594;DHT22;53450;42.584;23.366;2023-11-19T15:02:04;2.31;71.46
66594;DHT22;53450;42.584;23.366;2023-11-19T15:04:31;2.21;72.54
66594;DHT22;53450;42.584;23.366;2023-11-19T15:06:57;2.05;72.85
66594;DHT22;53450;42.584;23.366;2023-11-19T15:09:23;1.99;73.08
66594;DHT22;53450;42.584;23.366;2023-11-19T15:11:50;1.93;73.57
66594;DHT22;53450;42.584;23.366;2023-11-19T15:14:16;1.92;73.72
66594;DHT22;53450;42.584;23.366;2023-11-19T15:16:45;1.76;74.39
66594;DHT22;53450;42.584;23.366;2023-11-19T15:19:11;1.65;74.78
66594;DHT22;53450;42.584;23.366;2023-11-19T15:21:41;1.58;75.04
66594;DHT22;53450;42.584;23.366;2023-11-19T15:24:08;1.49;75.61
66594;DHT22;53450;42.584;23.366;2023-11-19T15:26:34;1.47;75.87
66594;DHT22;53450;42.584;23.366;2023-11-19T15:29:01;1.45;75.78
66594;DHT22;53450;42.584;23.366;2023-11-19T15:31:26;1.48;76.04
66594;DHT22;53450;42.584;23.366;2023-11-19T15:33:52;1.45;75.79
66594;DHT22;53450;42.584;23.366;2023-11-19T15:36:18;1.38;75.88
66594;DHT22;53450;42.584;23.366;2023-11-19T15:38:44;1.38;75.97
66594;DHT22;53450;42.584;23.366;2023-11-19T15:41:10;1.32;75.94
66594;DHT22;53450;42.584;23.366;2023-11-19T15:43:36;1.17;75.90
66594;DHT22;53450;42.584;23.366;2023-11-19T15:46:06;1.07;76.35
66594;DHT22;53450;42.584;23.366;2023-11-19T15:48:33;0.89;76.50
66594;DHT22;53450;42.584;23.366;2023-11-19T15:50:58;0.73;77.12
66594;DHT22;53450;42.584;23.366;2023-11-19T15:53:24;0.70;77.50
66594;DHT22;53450;42.584;23.366;2023-11-19T15:55:50;0.72;77.49